createdAt,value
2023-01-03T00:00:09.557Z,47.35
2023-01-03T00:00:32.285Z,47.17
2023-01-03T00:00:54.011Z,47.13
2023-01-03T00:01:16.992Z,47.02
2023-01-03T00:01:39.119Z,47.28
2023-01-03T00:02:00.925Z,47.32
2023-01-03T00:02:22.767Z,47.36
2023-01-03T00:02:45.497Z,47.50
2023-01-03T00:03:07.801Z,47.37
2023-01-03T00:03:29.396Z,47.39
2023-01-03T00:03:53.259Z,47.44
2023-01-03T00:04:16.238Z,47.30
2023-01-03T00:04:37.956Z,47.02
2023-01-03T00:04:59.934Z,46.88
2023-01-03T00:05:21.524Z,47.11
2023-01-03T00:05:44.387Z,46.70
2023-01-03T00:06:14.993Z,47.00
2023-01-03T00:06:40.394Z,46.77
2023-01-03T00:07:02.621Z,46.80
2023-01-03T00:07:35.120Z,46.45
2023-01-03T00:07:58.372Z,46.73
2023-01-03T00:08:21.737Z,46.76
2023-01-03T00:08:43.923Z,46.72
2023-01-03T00:09:14.263Z,46.38
2023-01-03T00:09:37.079Z,46.54
2023-01-03T00:09:58.839Z,46.57
2023-01-03T00:10:25.477Z,46.61
2023-01-03T00:10:49.035Z,46.50
2023-01-03T00:11:18.003Z,46.35
2023-01-03T00:12:00.840Z,46.53
2023-01-03T00:12:30.721Z,46.28
2023-01-03T00:12:54.366Z,46.37
2023-01-03T00:13:17.791Z,46.54
2023-01-03T00:13:43.320Z,46.32
2023-01-03T00:14:05.947Z,46.33
2023-01-03T00:14:32.944Z,46.22
2023-01-03T00:14:55.957Z,46.37
2023-01-03T00:15:19.404Z,46.20
2023-01-03T00:15:43.247Z,46.35
2023-01-03T00:16:16.220Z,46.59
2023-01-03T00:16:38.469Z,46.43
2023-01-03T00:17:04.345Z,46.69
2023-01-03T00:17:26.593Z,46.74
2023-01-03T00:17:50.283Z,46.82
2023-01-03T00:18:13.252Z,46.60
2023-01-03T00:18:35.857Z,46.58
2023-01-03T00:18:57.953Z,46.83
2023-01-03T00:19:20.106Z,46.67
2023-01-03T00:19:45.658Z,46.76
2023-01-03T00:20:10.308Z,46.51
2023-01-03T00:20:33.960Z,46.57
2023-01-03T00:20:55.605Z,46.62
2023-01-03T00:21:18.435Z,46.74
2023-01-03T00:21:42.714Z,46.40
2023-01-03T00:22:05.758Z,46.45
2023-01-03T00:22:34.058Z,46.47
2023-01-03T00:22:55.937Z,46.57
2023-01-03T00:23:17.832Z,46.50
2023-01-03T00:23:40.934Z,46.73
2023-01-03T00:24:05.651Z,46.61
2023-01-03T00:24:28.632Z,46.77
2023-01-03T00:24:52.605Z,47.01
2023-01-03T00:25:15.322Z,47.16
2023-01-03T00:25:38.332Z,46.61
2023-01-03T00:26:09.812Z,46.58
2023-01-03T00:26:32.267Z,46.50
2023-01-03T00:26:54.422Z,46.37
2023-01-03T00:27:21.401Z,46.50
2023-01-03T00:27:43.382Z,46.55
2023-01-03T00:28:06.797Z,46.58
2023-01-03T00:28:28.422Z,46.42
2023-01-03T00:28:57.050Z,46.70
2023-01-03T00:29:20.234Z,47.02
2023-01-03T00:29:43.073Z,46.80
2023-01-03T00:30:09.393Z,46.75
2023-01-03T00:30:32.335Z,46.70
2023-01-03T00:30:54.692Z,46.78
2023-01-03T00:31:16.465Z,46.87
2023-01-03T00:31:39.316Z,47.17
2023-01-03T00:32:04.472Z,47.01
2023-01-03T00:32:27.872Z,46.91
2023-01-03T00:32:50.325Z,46.85
2023-01-03T00:33:14.779Z,46.81
2023-01-03T00:33:38.373Z,46.65
2023-01-03T00:34:00.415Z,46.86
2023-01-03T00:34:22.302Z,46.55
2023-01-03T00:34:49.610Z,46.74
2023-01-03T00:35:11.579Z,47.07
2023-01-03T00:35:33.636Z,47.05
2023-01-03T00:35:55.905Z,47.02
2023-01-03T00:36:18.718Z,47.01
2023-01-03T00:36:41.562Z,46.84
2023-01-03T00:37:03.956Z,46.73
2023-01-03T00:37:25.661Z,46.90
2023-01-03T00:37:48.205Z,46.92
2023-01-03T00:38:09.914Z,46.93
2023-01-03T00:38:33.057Z,46.61
2023-01-03T00:38:54.687Z,46.63
2023-01-03T00:39:17.600Z,46.58
2023-01-03T00:39:39.767Z,46.74
2023-01-03T00:40:01.426Z,46.52
2023-01-03T00:40:23.200Z,46.26
2023-01-03T00:40:44.830Z,46.41
2023-01-03T00:41:09.790Z,46.46
2023-01-03T00:41:31.661Z,46.51
2023-01-03T00:41:54.197Z,46.21
2023-01-03T00:42:15.977Z,46.05
2023-01-03T00:42:52.630Z,46.45
2023-01-03T00:43:30.382Z,46.27
2023-01-03T00:43:52.229Z,46.47
2023-01-03T00:44:14.239Z,46.29
2023-01-03T00:44:36.868Z,46.23
2023-01-03T00:44:58.491Z,46.18
2023-01-03T00:45:25.309Z,46.13
2023-01-03T00:45:47.378Z,46.48
2023-01-03T00:46:11.860Z,46.40
2023-01-03T00:46:34.103Z,46.49
2023-01-03T00:46:55.794Z,46.49
2023-01-03T00:47:17.468Z,46.47
2023-01-03T00:47:42.797Z,46.66
2023-01-03T00:48:04.910Z,46.61
2023-01-03T00:48:27.290Z,46.85
2023-01-03T00:48:49.935Z,46.69
2023-01-03T00:49:12.882Z,46.42
2023-01-03T00:49:36.845Z,46.54
2023-01-03T00:50:00.182Z,46.43
2023-01-03T00:50:23.477Z,46.50
2023-01-03T00:50:46.813Z,46.65
2023-01-03T00:51:15.029Z,46.57
2023-01-03T00:51:39.340Z,46.43
2023-01-03T00:52:02.998Z,46.50
2023-01-03T00:52:31.927Z,46.52
2023-01-03T00:52:59.171Z,46.77
2023-01-03T00:53:22.100Z,46.64
2023-01-03T00:53:47.473Z,46.69
2023-01-03T00:54:11.248Z,46.70
2023-01-03T00:54:35.584Z,46.45
2023-01-03T00:54:57.763Z,46.65
2023-01-03T00:55:20.862Z,46.76
2023-01-03T00:55:46.579Z,46.45
2023-01-03T00:56:12.381Z,46.13
2023-01-03T00:56:38.541Z,46.03
2023-01-03T00:57:01.488Z,46.29
2023-01-03T00:57:24.447Z,46.35
2023-01-03T00:57:46.226Z,46.23
2023-01-03T00:58:07.890Z,46.56
2023-01-03T00:58:30.346Z,46.43
2023-01-03T00:58:53.183Z,46.07
2023-01-03T00:59:16.648Z,46.28
2023-01-03T00:59:39.777Z,46.64
2023-01-03T01:00:02.357Z,46.75
2023-01-03T01:00:25.948Z,46.63
2023-01-03T01:00:47.610Z,46.08
2023-01-03T01:01:11.155Z,46.08
2023-01-03T01:01:43.977Z,46.13
2023-01-03T01:02:09.173Z,45.99
2023-01-03T01:02:31.114Z,45.76
2023-01-03T01:02:53.403Z,45.46
2023-01-03T01:03:17.970Z,45.73
2023-01-03T01:03:42.738Z,45.55
2023-01-03T01:04:08.945Z,45.68
2023-01-03T01:04:31.722Z,45.86
2023-01-03T01:04:54.793Z,45.97
2023-01-03T01:05:16.484Z,45.86
2023-01-03T01:05:38.966Z,45.92
2023-01-03T01:06:00.603Z,45.99
2023-01-03T01:06:24.974Z,45.88
2023-01-03T01:06:48.420Z,45.90
2023-01-03T01:07:10.072Z,45.90
2023-01-03T01:07:32.644Z,46.31
2023-01-03T01:07:54.283Z,46.01
2023-01-03T01:08:15.937Z,46.10
2023-01-03T01:08:37.572Z,46.15
2023-01-03T01:09:01.955Z,46.32
2023-01-03T01:09:25.246Z,46.26
2023-01-03T01:09:46.893Z,45.94
2023-01-03T01:10:09.323Z,46.30
2023-01-03T01:10:31.874Z,46.15
2023-01-03T01:11:02.695Z,46.39
2023-01-03T01:11:25.714Z,46.17
2023-01-03T01:11:48.755Z,46.64
2023-01-03T01:12:10.431Z,46.46
2023-01-03T01:12:32.095Z,46.48
2023-01-03T01:12:55.412Z,46.35
2023-01-03T01:13:17.032Z,46.56
2023-01-03T01:13:40.290Z,46.38
2023-01-03T01:14:02.005Z,46.28
2023-01-03T01:14:26.681Z,46.02
2023-01-03T01:14:49.394Z,46.17
2023-01-03T01:15:11.920Z,46.37
2023-01-03T01:15:35.105Z,46.36
2023-01-03T01:16:01.428Z,46.20
2023-01-03T01:16:52.743Z,45.80
2023-01-03T01:17:20.677Z,45.76
2023-01-03T01:17:44.140Z,46.12
2023-01-03T01:18:06.848Z,45.69
2023-01-03T01:18:28.642Z,45.62
2023-01-03T01:18:53.884Z,45.78
2023-01-03T01:19:16.169Z,45.57
2023-01-03T01:19:40.962Z,45.56
2023-01-03T01:20:02.580Z,45.79
2023-01-03T01:20:24.190Z,45.83
2023-01-03T01:20:45.817Z,45.78
2023-01-03T01:21:09.941Z,45.98
2023-01-03T01:21:32.765Z,45.91
2023-01-03T01:21:54.465Z,45.70
2023-01-03T01:22:16.200Z,45.68
2023-01-03T01:22:37.889Z,45.66
2023-01-03T01:23:00.422Z,45.87
2023-01-03T01:23:22.081Z,45.87
2023-01-03T01:23:44.568Z,45.88
2023-01-03T01:24:08.185Z,45.74
2023-01-03T01:24:32.490Z,45.64
2023-01-03T01:24:54.072Z,45.82
2023-01-03T01:25:15.773Z,46.12
2023-01-03T01:25:38.341Z,45.93
2023-01-03T01:26:00.365Z,45.99
2023-01-03T01:26:23.939Z,45.78
2023-01-03T01:26:46.883Z,45.67
2023-01-03T01:27:08.584Z,45.79
2023-01-03T01:27:31.592Z,45.65
2023-01-03T01:27:53.171Z,45.76
2023-01-03T01:28:14.862Z,45.54
2023-01-03T01:28:37.565Z,45.58
2023-01-03T01:28:59.370Z,45.65
2023-01-03T01:29:21.387Z,45.42
2023-01-03T01:29:43.050Z,45.61
2023-01-03T01:30:06.194Z,45.77
2023-01-03T01:30:27.869Z,45.65
2023-01-03T01:30:50.898Z,45.44
2023-01-03T01:31:16.101Z,45.62
2023-01-03T01:31:38.698Z,45.79
2023-01-03T01:32:01.659Z,45.65
2023-01-03T01:32:23.378Z,45.37
2023-01-03T01:32:45.985Z,45.65
2023-01-03T01:33:07.677Z,45.69
2023-01-03T01:33:31.522Z,45.54
2023-01-03T01:33:54.501Z,45.58
2023-01-03T01:34:17.736Z,45.26
2023-01-03T01:34:39.719Z,45.29
2023-01-03T01:35:01.449Z,45.47
2023-01-03T01:35:23.060Z,45.45
2023-01-03T01:35:45.798Z,45.63
2023-01-03T01:36:08.870Z,45.78
2023-01-03T01:36:33.635Z,45.72
2023-01-03T01:36:56.531Z,45.72
2023-01-03T01:37:18.122Z,45.63
2023-01-03T01:37:39.831Z,45.59
2023-01-03T01:38:01.484Z,46.04
2023-01-03T01:38:23.196Z,45.85
2023-01-03T01:38:45.691Z,46.10
2023-01-03T01:39:11.455Z,46.06
2023-01-03T01:39:33.752Z,46.11
2023-01-03T01:39:55.320Z,46.01
2023-01-03T01:40:19.055Z,46.24
2023-01-03T01:40:41.684Z,45.94
2023-01-03T01:41:03.824Z,45.77
2023-01-03T01:41:45.193Z,45.84
2023-01-03T01:42:31.693Z,45.72
2023-01-03T01:43:11.000Z,45.40
2023-01-03T01:43:51.404Z,45.42
2023-01-03T01:44:49.307Z,45.57
2023-01-03T01:45:14.470Z,45.81
2023-01-03T01:45:36.270Z,45.81
2023-01-03T01:46:04.442Z,45.52
2023-01-03T01:46:30.060Z,45.94
2023-01-03T01:46:53.697Z,45.75
2023-01-03T01:47:20.584Z,45.71
2023-01-03T01:47:50.650Z,46.02
2023-01-03T01:48:14.364Z,45.68
2023-01-03T01:48:37.026Z,45.67
2023-01-03T01:49:03.249Z,46.14
2023-01-03T01:49:26.133Z,45.99
2023-01-03T01:49:53.109Z,45.96
2023-01-03T01:50:24.582Z,46.10
2023-01-03T01:50:50.632Z,45.80
2023-01-03T01:51:13.220Z,45.98
2023-01-03T01:51:36.254Z,45.74
2023-01-03T01:51:58.995Z,45.73
2023-01-03T01:52:22.126Z,45.68
2023-01-03T01:52:51.848Z,45.75
2023-01-03T01:53:18.496Z,45.59
2023-01-03T01:53:42.745Z,45.55
2023-01-03T01:54:06.845Z,45.59
2023-01-03T01:54:29.066Z,45.55
2023-01-03T01:54:53.829Z,45.25
2023-01-03T01:55:18.835Z,45.51
2023-01-03T01:55:43.440Z,45.73
2023-01-03T01:56:09.477Z,45.80
2023-01-03T01:56:35.170Z,45.77
2023-01-03T01:56:57.825Z,45.89
2023-01-03T01:57:22.468Z,45.57
2023-01-03T01:57:44.642Z,45.75
2023-01-03T01:58:08.909Z,45.72
2023-01-03T01:58:35.471Z,45.57
2023-01-03T01:58:57.727Z,45.83
2023-01-03T01:59:19.440Z,46.20
2023-01-03T01:59:42.366Z,45.94
2023-01-03T02:00:05.084Z,45.86
2023-01-03T02:00:26.919Z,45.54
2023-01-03T02:00:48.613Z,45.57
2023-01-03T02:01:14.746Z,45.87
2023-01-03T02:01:37.022Z,45.58
2023-01-03T02:01:58.969Z,45.68
2023-01-03T02:02:23.204Z,45.96
2023-01-03T02:02:49.347Z,45.86
2023-01-03T02:03:11.757Z,45.80
2023-01-03T02:03:33.655Z,45.46
2023-01-03T02:04:01.160Z,45.38
2023-01-03T02:04:26.942Z,45.35
2023-01-03T02:04:52.301Z,45.62
2023-01-03T02:05:17.012Z,45.61
2023-01-03T02:05:44.112Z,45.46
2023-01-03T02:06:09.177Z,45.19
2023-01-03T02:06:32.569Z,45.33
2023-01-03T02:06:56.380Z,45.58
2023-01-03T02:07:20.656Z,45.46
2023-01-03T02:07:44.314Z,45.16
2023-01-03T02:08:06.200Z,45.25
2023-01-03T02:08:28.146Z,45.33
2023-01-03T02:08:50.125Z,45.02
2023-01-03T02:09:14.442Z,44.98
2023-01-03T02:09:38.557Z,44.92
2023-01-03T02:10:00.743Z,45.04
2023-01-03T02:10:36.390Z,45.29
2023-01-03T02:11:20.435Z,45.27
2023-01-03T02:12:14.398Z,45.61
2023-01-03T02:12:58.897Z,45.64
2023-01-03T02:13:31.988Z,45.40
2023-01-03T02:14:02.854Z,45.47
2023-01-03T02:14:45.956Z,45.53
2023-01-03T02:15:17.981Z,45.37
2023-01-03T02:15:58.242Z,45.36
2023-01-03T02:16:48.464Z,45.35
2023-01-03T02:17:18.428Z,45.34
2023-01-03T02:17:54.579Z,45.32
2023-01-03T02:18:37.901Z,45.40
2023-01-03T02:19:16.739Z,45.86
2023-01-03T02:20:05.043Z,45.52
2023-01-03T02:20:52.062Z,45.32
2023-01-03T02:21:54.161Z,45.44
2023-01-03T02:22:45.968Z,45.15
2023-01-03T02:23:37.064Z,44.99
2023-01-03T02:24:31.283Z,45.16
2023-01-03T02:25:37.290Z,45.13
2023-01-03T02:26:23.595Z,45.38
2023-01-03T02:26:54.008Z,45.09
2023-01-03T02:27:42.091Z,45.02
2023-01-03T02:28:45.010Z,45.26
2023-01-03T02:29:45.802Z,45.40
2023-01-03T02:30:32.692Z,45.58
2023-01-03T02:30:58.669Z,45.36
2023-01-03T02:31:25.508Z,45.54
2023-01-03T02:31:55.260Z,45.69
2023-01-03T02:32:23.790Z,45.85
2023-01-03T02:32:52.687Z,46.08
2023-01-03T02:33:24.118Z,45.88
2023-01-03T02:33:54.875Z,45.80
2023-01-03T02:34:22.142Z,45.49
2023-01-03T02:34:50.440Z,45.31
2023-01-03T02:35:18.900Z,45.22
2023-01-03T02:35:53.764Z,45.52
2023-01-03T02:36:25.550Z,45.35
2023-01-03T02:36:59.124Z,45.18
2023-01-03T02:37:31.417Z,45.47
2023-01-03T02:38:02.332Z,45.36
2023-01-03T02:38:29.363Z,45.56
2023-01-03T02:38:57.953Z,45.35
2023-01-03T02:39:25.606Z,45.52
2023-01-03T02:39:54.322Z,45.52
2023-01-03T02:40:24.035Z,45.23
2023-01-03T02:40:51.504Z,45.63
2023-01-03T02:41:23.656Z,45.68
2023-01-03T02:41:48.132Z,45.71
2023-01-03T02:42:33.787Z,45.68
2023-01-03T02:42:58.848Z,45.70
2023-01-03T02:43:27.857Z,45.91
2023-01-03T02:43:54.983Z,45.72
2023-01-03T02:44:23.819Z,45.83
2023-01-03T02:44:54.525Z,45.79
2023-01-03T02:45:21.925Z,45.86
2023-01-03T02:46:02.630Z,46.09
2023-01-03T02:46:30.306Z,45.97
2023-01-03T02:46:57.941Z,45.89
2023-01-03T02:47:25.239Z,45.83
2023-01-03T02:47:52.864Z,45.85
2023-01-03T02:48:19.225Z,45.89
2023-01-03T02:48:49.414Z,46.17
2023-01-03T02:49:19.205Z,46.19
2023-01-03T02:49:45.120Z,46.15
2023-01-03T02:50:11.305Z,46.20
2023-01-03T02:50:42.473Z,46.13
2023-01-03T02:51:09.333Z,46.19
2023-01-03T02:51:36.012Z,46.56
2023-01-03T02:52:03.656Z,45.90
2023-01-03T02:52:30.673Z,45.95
2023-01-03T02:52:56.853Z,45.96
2023-01-03T02:53:25.883Z,45.86
2023-01-03T02:53:51.796Z,45.93
2023-01-03T02:54:20.429Z,45.80
2023-01-03T02:54:45.445Z,45.87
2023-01-03T02:55:15.957Z,45.71
2023-01-03T02:55:39.542Z,45.77
2023-01-03T02:56:09.755Z,45.84
2023-01-03T02:56:40.430Z,45.89
2023-01-03T02:57:08.486Z,45.91
2023-01-03T02:57:35.437Z,45.93
2023-01-03T02:58:06.801Z,46.17
2023-01-03T02:58:35.072Z,46.01
2023-01-03T02:59:01.489Z,46.13
2023-01-03T02:59:30.318Z,45.94
2023-01-03T02:59:54.487Z,46.09
2023-01-03T03:00:21.336Z,46.08
2023-01-03T03:00:48.863Z,46.10
2023-01-03T03:01:13.381Z,46.34
2023-01-03T03:01:37.272Z,46.34
2023-01-03T03:02:01.309Z,46.30
2023-01-03T03:02:26.721Z,46.11
2023-01-03T03:02:52.044Z,46.16
2023-01-03T03:03:18.205Z,46.11
2023-01-03T03:03:40.969Z,46.21
2023-01-03T03:04:03.653Z,45.99
2023-01-03T03:04:25.653Z,45.98
2023-01-03T03:04:52.429Z,46.18
2023-01-03T03:05:22.161Z,46.25
2023-01-03T03:05:50.041Z,46.24
2023-01-03T03:06:21.208Z,46.51
2023-01-03T03:06:48.604Z,46.34
2023-01-03T03:07:19.372Z,46.14
2023-01-03T03:07:41.623Z,46.12
2023-01-03T03:08:04.649Z,46.10
2023-01-03T03:08:26.453Z,46.01
2023-01-03T03:08:48.941Z,45.95
2023-01-03T03:09:11.576Z,46.05
2023-01-03T03:09:33.276Z,46.02
2023-01-03T03:10:14.649Z,45.82
2023-01-03T03:10:56.310Z,46.15
2023-01-03T03:11:36.690Z,45.84
2023-01-03T03:12:20.138Z,45.90
2023-01-03T03:13:03.477Z,46.12
2023-01-03T03:13:30.645Z,45.96
2023-01-03T03:13:57.616Z,46.02
2023-01-03T03:14:24.284Z,46.02
2023-01-03T03:14:50.117Z,46.03
2023-01-03T03:15:14.550Z,46.06
2023-01-03T03:15:42.236Z,46.00
2023-01-03T03:16:11.564Z,45.96
2023-01-03T03:16:50.200Z,45.91
2023-01-03T03:17:15.936Z,45.94
2023-01-03T03:17:40.522Z,45.98
2023-01-03T03:18:08.371Z,45.94
2023-01-03T03:18:41.957Z,45.90
2023-01-03T03:19:35.767Z,46.00
2023-01-03T03:20:16.750Z,46.00
2023-01-03T03:20:56.716Z,45.78
2023-01-03T03:21:39.232Z,46.00
2023-01-03T03:22:21.173Z,46.31
2023-01-03T03:23:06.838Z,45.95
2023-01-03T03:23:49.732Z,46.06
2023-01-03T03:24:32.882Z,46.15
2023-01-03T03:25:00.620Z,45.89
2023-01-03T03:25:28.019Z,45.81
2023-01-03T03:25:53.654Z,45.85
2023-01-03T03:26:20.933Z,45.66
2023-01-03T03:26:47.277Z,45.71
2023-01-03T03:27:31.887Z,45.69
2023-01-03T03:28:16.639Z,45.71
2023-01-03T03:28:43.553Z,46.20
2023-01-03T03:29:11.965Z,45.95
2023-01-03T03:29:34.064Z,45.93
2023-01-03T03:29:58.267Z,46.06
2023-01-03T03:30:25.019Z,45.80
2023-01-03T03:30:51.977Z,45.92
2023-01-03T03:31:18.195Z,45.72
2023-01-03T03:31:47.091Z,45.83
2023-01-03T03:32:09.004Z,45.79
2023-01-03T03:32:35.205Z,45.75
2023-01-03T03:33:01.403Z,45.89
2023-01-03T03:33:26.338Z,45.88
2023-01-03T03:33:51.886Z,45.94
2023-01-03T03:34:19.341Z,45.95
2023-01-03T03:34:43.165Z,45.99
2023-01-03T03:35:09.198Z,46.01
2023-01-03T03:35:35.492Z,45.94
2023-01-03T03:36:03.358Z,45.95
2023-01-03T03:36:32.908Z,46.01
2023-01-03T03:37:00.121Z,46.19
2023-01-03T03:37:25.916Z,46.28
2023-01-03T03:37:51.507Z,46.46
2023-01-03T03:38:18.165Z,46.46
2023-01-03T03:38:42.282Z,46.16
2023-01-03T03:39:04.712Z,46.21
2023-01-03T03:39:46.834Z,46.47
2023-01-03T03:40:28.954Z,46.47
2023-01-03T03:41:18.149Z,46.67
2023-01-03T03:42:03.295Z,46.81
2023-01-03T03:42:48.838Z,46.37
2023-01-03T03:43:39.200Z,46.58
2023-01-03T03:44:23.457Z,46.46
2023-01-03T03:45:03.142Z,46.51
2023-01-03T03:45:31.992Z,46.54
2023-01-03T03:46:02.670Z,46.34
2023-01-03T03:46:30.925Z,46.49
2023-01-03T03:47:04.282Z,46.53
2023-01-03T03:47:34.704Z,46.58
2023-01-03T03:48:04.686Z,46.33
2023-01-03T03:48:52.475Z,46.41
2023-01-03T03:49:38.703Z,46.71
2023-01-03T03:50:04.976Z,46.50
2023-01-03T03:50:29.421Z,46.52
2023-01-03T03:50:54.124Z,46.33
2023-01-03T03:51:20.803Z,46.43
2023-01-03T03:51:44.645Z,46.23
2023-01-03T03:52:10.999Z,46.32
2023-01-03T03:52:39.212Z,46.09
2023-01-03T03:53:08.562Z,46.42
2023-01-03T03:53:34.663Z,46.40
2023-01-03T03:53:57.961Z,46.76
2023-01-03T03:54:22.699Z,46.57
2023-01-03T03:54:52.643Z,46.67
2023-01-03T03:55:18.115Z,46.48
2023-01-03T03:55:49.663Z,46.45
2023-01-03T03:56:17.559Z,46.48
2023-01-03T03:56:44.030Z,46.27
2023-01-03T03:57:12.958Z,46.58
2023-01-03T03:57:39.995Z,46.55
2023-01-03T03:58:08.351Z,46.41
2023-01-03T03:58:34.251Z,46.42
2023-01-03T03:59:01.617Z,46.31
2023-01-03T03:59:27.670Z,46.50
2023-01-03T04:00:00.037Z,46.58
2023-01-03T04:00:28.801Z,46.44
2023-01-03T04:00:52.399Z,46.41
2023-01-03T04:01:19.939Z,46.37
2023-01-03T04:01:43.217Z,46.41
2023-01-03T04:02:10.919Z,46.44
2023-01-03T04:02:35.557Z,46.39
2023-01-03T04:02:59.907Z,46.28
2023-01-03T04:03:23.887Z,46.36
2023-01-03T04:03:48.781Z,46.24
2023-01-03T04:04:15.626Z,46.41
2023-01-03T04:04:42.484Z,46.63
2023-01-03T04:05:10.743Z,46.42
2023-01-03T04:05:36.613Z,46.51
2023-01-03T04:06:01.414Z,46.44
2023-01-03T04:06:28.299Z,46.48
2023-01-03T04:06:52.998Z,46.26
2023-01-03T04:07:14.670Z,46.31
2023-01-03T04:07:36.623Z,46.55
2023-01-03T04:07:59.185Z,46.68
2023-01-03T04:08:21.029Z,46.68
2023-01-03T04:08:42.944Z,46.86
2023-01-03T04:09:04.836Z,46.81
2023-01-03T04:09:27.444Z,46.74
2023-01-03T04:09:49.170Z,46.71
2023-01-03T04:10:12.002Z,46.71
2023-01-03T04:10:37.742Z,46.49
2023-01-03T04:11:06.371Z,46.83
2023-01-03T04:11:28.055Z,46.64
2023-01-03T04:11:49.630Z,46.73
2023-01-03T04:12:11.363Z,46.76
2023-01-03T04:12:34.067Z,46.62
2023-01-03T04:12:55.934Z,46.76
2023-01-03T04:13:17.617Z,46.78
2023-01-03T04:13:39.752Z,46.71
2023-01-03T04:14:02.644Z,46.83
2023-01-03T04:14:24.375Z,46.83
2023-01-03T04:14:46.155Z,46.82
2023-01-03T04:15:08.624Z,46.82
2023-01-03T04:15:31.188Z,46.81
2023-01-03T04:15:52.790Z,46.78
2023-01-03T04:16:14.490Z,46.62
2023-01-03T04:16:37.686Z,46.77
2023-01-03T04:17:00.672Z,46.84
2023-01-03T04:17:23.743Z,46.98
2023-01-03T04:17:45.383Z,46.91
2023-01-03T04:18:07.922Z,47.07
2023-01-03T04:18:29.697Z,47.30
2023-01-03T04:18:51.301Z,47.12
2023-01-03T04:19:13.019Z,47.02
2023-01-03T04:19:34.639Z,47.04
2023-01-03T04:19:57.195Z,46.96
2023-01-03T04:20:19.170Z,47.12
2023-01-03T04:20:40.759Z,46.85
2023-01-03T04:21:02.561Z,46.83
2023-01-03T04:21:24.162Z,46.88
2023-01-03T04:21:46.756Z,46.90
2023-01-03T04:22:08.412Z,46.82
2023-01-03T04:22:30.035Z,46.92
2023-01-03T04:22:51.624Z,47.06
2023-01-03T04:23:13.243Z,47.22
2023-01-03T04:23:35.843Z,47.24
2023-01-03T04:23:58.374Z,47.21
2023-01-03T04:24:22.458Z,47.17
2023-01-03T04:24:46.669Z,47.09
2023-01-03T04:25:10.904Z,47.02
2023-01-03T04:25:34.022Z,47.00
2023-01-03T04:25:56.098Z,47.09
2023-01-03T04:26:18.525Z,47.02
2023-01-03T04:26:42.014Z,47.14
2023-01-03T04:27:06.681Z,47.17
2023-01-03T04:27:31.974Z,47.05
2023-01-03T04:27:58.528Z,46.88
2023-01-03T04:28:21.624Z,46.72
2023-01-03T04:28:44.100Z,46.74
2023-01-03T04:29:07.325Z,46.74
2023-01-03T04:29:31.742Z,46.60
2023-01-03T04:29:59.625Z,47.00
2023-01-03T04:30:23.595Z,47.01
2023-01-03T04:30:47.221Z,47.09
2023-01-03T04:31:10.620Z,47.15
2023-01-03T04:31:35.120Z,46.99
2023-01-03T04:32:02.051Z,46.98
2023-01-03T04:32:28.983Z,46.98
2023-01-03T04:32:52.418Z,46.89
2023-01-03T04:33:15.973Z,46.78
2023-01-03T04:33:37.938Z,46.89
2023-01-03T04:34:00.658Z,46.74
2023-01-03T04:34:23.403Z,46.61
2023-01-03T04:34:45.105Z,46.59
2023-01-03T04:35:07.828Z,46.58
2023-01-03T04:35:29.702Z,46.67
2023-01-03T04:35:52.404Z,46.58
2023-01-03T04:36:14.181Z,46.66
2023-01-03T04:36:35.826Z,46.79
2023-01-03T04:36:57.444Z,46.75
2023-01-03T04:37:20.102Z,46.80
2023-01-03T04:37:41.773Z,46.78
2023-01-03T04:38:04.240Z,46.50
2023-01-03T04:38:26.873Z,46.36
2023-01-03T04:38:48.892Z,46.46
2023-01-03T04:39:10.714Z,46.27
2023-01-03T04:39:32.405Z,46.43
2023-01-03T04:39:55.140Z,46.46
2023-01-03T04:40:16.856Z,46.51
2023-01-03T04:40:38.826Z,46.63
2023-01-03T04:41:04.126Z,46.86
2023-01-03T04:41:25.872Z,46.62
2023-01-03T04:41:48.643Z,46.72
2023-01-03T04:42:25.150Z,46.44
2023-01-03T04:43:05.307Z,46.50
2023-01-03T04:43:45.571Z,46.43
2023-01-03T04:44:07.400Z,46.55
2023-01-03T04:44:29.110Z,46.53
2023-01-03T04:44:52.938Z,46.59
2023-01-03T04:45:15.070Z,46.28
2023-01-03T04:45:37.201Z,46.24
2023-01-03T04:46:00.224Z,46.26
2023-01-03T04:46:22.757Z,46.33
2023-01-03T04:46:52.286Z,46.20
2023-01-03T04:47:17.925Z,46.10
2023-01-03T04:47:42.477Z,46.22
2023-01-03T04:48:04.824Z,46.15
2023-01-03T04:48:26.852Z,46.32
2023-01-03T04:48:51.476Z,46.30
2023-01-03T04:49:15.688Z,45.97
2023-01-03T04:49:37.510Z,45.96
2023-01-03T04:50:01.256Z,45.95
2023-01-03T04:50:23.921Z,46.00
2023-01-03T04:50:56.145Z,45.84
2023-01-03T04:51:17.979Z,45.94
2023-01-03T04:51:39.871Z,46.00
2023-01-03T04:52:02.525Z,46.00
2023-01-03T04:52:24.433Z,45.98
2023-01-03T04:52:46.115Z,45.88
2023-01-03T04:53:08.637Z,45.88
2023-01-03T04:53:32.865Z,46.05
2023-01-03T04:53:58.196Z,46.19
2023-01-03T04:54:23.240Z,46.09
2023-01-03T04:54:44.929Z,45.98
2023-01-03T04:55:09.955Z,45.85
2023-01-03T04:55:32.835Z,45.74
2023-01-03T04:55:56.977Z,45.45
2023-01-03T04:56:24.168Z,45.37
2023-01-03T04:56:47.249Z,45.39
2023-01-03T04:57:11.732Z,45.46
2023-01-03T04:57:33.936Z,45.48
2023-01-03T04:58:01.483Z,45.79
2023-01-03T04:58:23.442Z,45.54
2023-01-03T04:58:46.365Z,45.62
2023-01-03T04:59:08.037Z,45.37
2023-01-03T04:59:31.817Z,45.57
2023-01-03T04:59:56.163Z,45.66
2023-01-03T05:00:19.560Z,45.64
2023-01-03T05:00:42.377Z,45.74
2023-01-03T05:01:08.173Z,46.04
2023-01-03T05:01:30.484Z,46.19
2023-01-03T05:01:53.319Z,45.97
2023-01-03T05:02:15.447Z,45.59
2023-01-03T05:02:39.557Z,45.53
2023-01-03T05:03:03.243Z,45.58
2023-01-03T05:03:28.026Z,45.52
2023-01-03T05:03:51.564Z,45.65
2023-01-03T05:04:15.174Z,45.48
2023-01-03T05:04:37.157Z,45.55
2023-01-03T05:04:58.952Z,45.44
2023-01-03T05:05:21.550Z,45.37
2023-01-03T05:05:43.333Z,45.15
2023-01-03T05:06:07.033Z,45.08
2023-01-03T05:06:29.284Z,45.22
2023-01-03T05:06:53.890Z,45.25
2023-01-03T05:07:15.533Z,45.35
2023-01-03T05:07:37.559Z,45.07
2023-01-03T05:07:59.197Z,45.15
2023-01-03T05:08:20.818Z,45.09
2023-01-03T05:08:44.611Z,45.00
2023-01-03T05:09:07.388Z,44.98
2023-01-03T05:09:29.350Z,45.08
2023-01-03T05:09:50.969Z,45.18
2023-01-03T05:10:12.570Z,45.17
2023-01-03T05:10:35.822Z,45.31
2023-01-03T05:10:57.461Z,45.23
2023-01-03T05:11:19.174Z,45.31
2023-01-03T05:11:40.860Z,45.35
2023-01-03T05:12:03.416Z,45.26
2023-01-03T05:12:25.597Z,45.43
2023-01-03T05:12:59.808Z,45.40
2023-01-03T05:13:21.973Z,45.75
2023-01-03T05:13:44.616Z,45.74
2023-01-03T05:14:10.774Z,45.59
2023-01-03T05:14:37.106Z,45.60
2023-01-03T05:14:58.792Z,45.69
2023-01-03T05:15:20.352Z,45.56
2023-01-03T05:15:44.056Z,45.61
2023-01-03T05:16:07.798Z,45.66
2023-01-03T05:16:29.975Z,45.79
2023-01-03T05:16:52.779Z,45.95
2023-01-03T05:17:14.662Z,46.04
2023-01-03T05:17:36.270Z,45.83
2023-01-03T05:17:58.202Z,45.89
2023-01-03T05:18:21.357Z,45.83
2023-01-03T05:18:43.975Z,45.78
2023-01-03T05:19:05.646Z,45.69
2023-01-03T05:19:27.250Z,45.86
2023-01-03T05:20:07.602Z,45.53
2023-01-03T05:20:47.667Z,45.97
2023-01-03T05:21:32.564Z,45.79
2023-01-03T05:22:12.579Z,46.15
2023-01-03T05:22:52.893Z,46.09
2023-01-03T05:23:35.085Z,46.03
2023-01-03T05:24:15.705Z,46.01
2023-01-03T05:24:55.745Z,45.96
2023-01-03T05:25:36.213Z,45.76
2023-01-03T05:25:59.495Z,45.71
2023-01-03T05:26:22.308Z,45.66
2023-01-03T05:26:44.971Z,45.65
2023-01-03T05:27:06.818Z,45.43
2023-01-03T05:27:29.468Z,45.42
2023-01-03T05:27:51.320Z,45.66
2023-01-03T05:28:17.261Z,45.25
2023-01-03T05:28:41.167Z,45.44
2023-01-03T05:29:02.771Z,45.34
2023-01-03T05:29:24.489Z,45.45
2023-01-03T05:29:50.779Z,45.47
2023-01-03T05:30:12.892Z,45.61
2023-01-03T05:30:34.518Z,45.62
2023-01-03T05:30:57.752Z,45.47
2023-01-03T05:31:20.737Z,45.64
2023-01-03T05:31:43.661Z,45.48
2023-01-03T05:32:05.882Z,45.60
2023-01-03T05:32:29.190Z,45.61
2023-01-03T05:32:50.787Z,45.47
2023-01-03T05:33:12.442Z,45.56
2023-01-03T05:33:38.629Z,45.50
2023-01-03T05:34:00.273Z,45.56
2023-01-03T05:34:22.081Z,45.62
2023-01-03T05:34:45.057Z,45.83
2023-01-03T05:35:07.162Z,45.74
2023-01-03T05:35:28.755Z,45.61
2023-01-03T05:35:50.863Z,45.97
2023-01-03T05:36:13.467Z,45.92
2023-01-03T05:36:35.097Z,45.76
2023-01-03T05:36:56.744Z,45.76